Quick Links (Output Below):   Max & Min Temps   /   Climate Reports   /   Zone Forecasts
River Forecasts   /   Forestry Forecasts   /   Aviation Forecasts   /   Radars   /   Features

Terminal Aerodrome Forecast (Harrison)

Pick a Site:
Arkadelphia | El Dorado | Fayetteville | Fort Smith | Harrison | Highfill | Hot Springs | Jonesboro
Little Rock | Monticello | Mountain Home | Pine Bluff | Texarkana
 Forecast 

KHRO 291215Z 2912/3012 19007KT 6SM SHRA BR OVC080
      TEMPO 2912/2915 5SM TSRA BR OVC050CB
     FM291500 20005KT P6SM SCT050 BKN100
     FM300000 17005KT P6SM BKN050 PROB30 3000/3006 -TSRA BKN040CB
      AMD NOT SKED=


 Latest METARs (Observations) 
How to Decode METARs
NO CURRENT OBSERVATIONS

***** Today's Observations (Above) *****


NO CURRENT OBSERVATIONS

***** Yesterday's Observations (Above) *****


Back to Main Page
http://www.srh.noaa.gov/lzk/qfcst.php

USA.gov is the U.S. government's official web portal to all federal, state and local government web resources and services.